Dunlap, Illinois
Current Conditions -  °F | °C
As of 2:54 AM on Wednesday 22 Oct 2014 (Local Time) from KPIA Reporting Station
Clear Clear  
Wind Chill: 37°   Ceiling: Unl
Heat Index: 41°   Visibility: 10mi
Dew Point: 36°   Wind: 6mph
Humidity: 82%   Direction: 70°ENE
Pressure: 30.28"   Gusts: NA
Location:  40.86°N, 89.68°W
Report Text: KPIA 220754Z 07005KT 10SM CLR 05/02 A3028 RMK AO2 SLP253 T00500022 $
Loading
Personal Weather Stations






























Interactive Weather Map
Tropical Storm Tracking
New forecast layout! Learn more

10-Day Weather Forecast

Advertisements
Track Severe Weather on mobile